Time;durP1;ratioP1;P1;durP2;ratioP2;P2;SDS_P1;SDS_P2;PMS_P1;PMS_P2;Temp;Humidity;BMP_temperature;BMP_pressure;BME280_temperature;BME280_humidity;BME280_pressure;Samples;Min_cycle;Max_cycle;Signal;HPM_P1;HPM_P2
2021/01/01 00:01:43;;;;;;;107.55;55.28;;;;;;;;;;5029964;28;20612;-50
2021/01/01 00:04:09;;;;;;;97.07;52.83;;;;;;;;;;5030262;28;20596;-51
2021/01/01 00:06:36;;;;;;;93.67;50.97;;;;;;;;;;5030156;28;20173;-53
2021/01/01 00:09:02;;;;;;;91.95;49.25;;;;;;;;;;5030568;28;20457;-51
2021/01/01 00:11:28;;;;;;;99.18;48.35;;;;;;;;;;5029792;28;20537;-50
2021/01/01 00:13:54;;;;;;;93.20;48.65;;;;;;;;;;5033161;28;20199;-50
2021/01/01 00:16:20;;;;;;;84.47;43.90;;;;;;;;;;5050065;28;20255;-50
2021/01/01 00:18:46;;;;;;;82.30;44.13;;;;;;;;;;5051322;28;20503;-51
2021/01/01 00:21:12;;;;;;;82.40;43.75;;;;;;;;;;5053496;28;20168;-50
2021/01/01 00:23:38;;;;;;;87.80;45.87;;;;;;;;;;5053542;28;20199;-50
2021/01/01 00:26:11;;;;;;;81.40;42.57;;;;;;;;;;5053643;28;20947;-51
2021/01/01 00:28:39;;;;;;;87.30;43.50;;;;;;;;;;5053485;28;20476;-51
2021/01/01 00:31:05;;;;;;;94.53;46.25;;;;;;;;;;5053322;28;20164;-56
2021/01/01 00:33:31;;;;;;;91.07;49.80;;;;;;;;;;5053255;28;20782;-50
2021/01/01 00:35:57;;;;;;;88.10;47.25;;;;;;;;;;5053516;28;20255;-50
2021/01/01 00:38:23;;;;;;;85.10;48.43;;;;;;;;;;5053223;28;20196;-51
2021/01/01 00:40:48;;;;;;;86.70;48.50;;;;;;;;;;5053380;28;20405;-51
2021/01/01 00:43:14;;;;;;;105.27;50.97;;;;;;;;;;5052918;28;20415;-53
2021/01/01 00:45:40;;;;;;;90.83;46.70;;;;;;;;;;5051651;28;20533;-50
2021/01/01 00:48:06;;;;;;;102.93;51.10;;;;;;;;;;5051154;28;20942;-50
2021/01/01 00:50:32;;;;;;;106.40;53.25;;;;;;;;;;5053262;28;20477;-50
2021/01/01 00:52:58;;;;;;;109.87;53.37;;;;;;;;;;5052896;28;20616;-50
2021/01/01 00:55:24;;;;;;;104.17;51.10;;;;;;;;;;5053177;28;20747;-50
2021/01/01 00:57:50;;;;;;;103.83;52.30;;;;;;;;;;5053124;28;20396;-50
2021/01/01 01:00:16;;;;;;;104.50;53.80;;;;;;;;;;5052880;28;20519;-51
2021/01/01 01:02:42;;;;;;;99.18;50.67;;;;;;;;;;5049785;28;20455;-50
2021/01/01 01:05:09;;;;;;;94.87;48.70;;;;;;;;;;5052983;28;20171;-50
2021/01/01 01:07:35;;;;;;;90.22;48.15;;;;;;;;;;5053155;28;20766;-50
2021/01/01 01:10:01;;;;;;;90.18;47.58;;;;;;;;;;5052925;28;20625;-50
2021/01/01 01:12:29;;;;;;;88.10;45.40;;;;;;;;;;5052543;28;20267;-50
2021/01/01 01:14:55;;;;;;;89.95;48.75;;;;;;;;;;5045266;28;20440;-50
2021/01/01 01:17:21;;;;;;;93.57;47.17;;;;;;;;;;5032883;28;20180;-50
2021/01/01 01:19:47;;;;;;;97.00;46.90;;;;;;;;;;5032564;28;20201;-50
2021/01/01 01:22:13;;;;;;;90.73;46.60;;;;;;;;;;5032326;28;20496;-51
2021/01/01 01:24:39;;;;;;;78.30;43.67;;;;;;;;;;5032666;28;20422;-52
2021/01/01 01:27:05;;;;;;;86.50;45.63;;;;;;;;;;5032488;28;20403;-52
2021/01/01 01:29:30;;;;;;;98.75;49.13;;;;;;;;;;5032257;28;20407;-53
2021/01/01 01:31:56;;;;;;;95.47;49.13;;;;;;;;;;5031799;28;20168;-53
2021/01/01 01:34:22;;;;;;;92.00;49.60;;;;;;;;;;5032442;28;20490;-53
2021/01/01 01:36:49;;;;;;;99.97;50.23;;;;;;;;;;5032248;28;20436;-53
2021/01/01 01:39:15;;;;;;;95.72;45.40;;;;;;;;;;5032304;28;20464;-53
2021/01/01 01:41:41;;;;;;;90.90;46.45;;;;;;;;;;5032099;28;20178;-50
2021/01/01 01:44:07;;;;;;;90.27;44.47;;;;;;;;;;5032168;28;20193;-50
2021/01/01 01:46:42;;;;;;;89.23;45.10;;;;;;;;;;5031376;28;20444;-51
2021/01/01 01:49:10;;;;;;;85.53;43.55;;;;;;;;;;5032218;28;21081;-50
2021/01/01 01:51:36;;;;;;;89.70;44.20;;;;;;;;;;5031683;28;20173;-52
2021/01/01 01:54:03;;;;;;;95.88;46.75;;;;;;;;;;5032056;28;20187;-50
2021/01/01 01:56:29;;;;;;;90.13;45.90;;;;;;;;;;5031926;28;20172;-50
2021/01/01 01:58:56;;;;;;;85.60;45.90;;;;;;;;;;5031937;28;20203;-50
2021/01/01 02:01:22;;;;;;;88.25;45.20;;;;;;;;;;5031160;28;20415;-53
2021/01/01 02:03:48;;;;;;;95.80;46.45;;;;;;;;;;5031032;28;20183;-55
2021/01/01 02:06:14;;;;;;;79.85;44.28;;;;;;;;;;5031616;28;20625;-53
2021/01/01 02:08:40;;;;;;;88.63;44.40;;;;;;;;;;5031580;28;20216;-53
2021/01/01 02:11:06;;;;;;;92.00;45.70;;;;;;;;;;5031475;28;20667;-53
2021/01/01 02:13:32;;;;;;;103.25;44.75;;;;;;;;;;5031488;28;20223;-51
2021/01/01 02:15:58;;;;;;;82.35;40.42;;;;;;;;;;5031617;28;20176;-51
2021/01/01 02:18:37;;;;;;;79.90;39.90;;;;;;;;;;5030923;28;20224;-52
2021/01/01 02:21:04;;;;;;;92.70;42.40;;;;;;;;;;5031597;28;20403;-50
2021/01/01 02:23:30;;;;;;;86.75;42.78;;;;;;;;;;5031346;28;20214;-53
2021/01/01 02:25:56;;;;;;;87.63;43.37;;;;;;;;;;5031522;28;20209;-53
2021/01/01 02:28:22;;;;;;;92.78;42.13;;;;;;;;;;5031323;28;20395;-50
2021/01/01 02:30:48;;;;;;;91.45;42.67;;;;;;;;;;5031423;28;20201;-51
2021/01/01 02:33:14;;;;;;;83.63;41.85;;;;;;;;;;5030895;28;20194;-50
2021/01/01 02:35:40;;;;;;;80.23;42.10;;;;;;;;;;5031344;28;20173;-51
2021/01/01 02:38:06;;;;;;;77.03;38.30;;;;;;;;;;5031191;28;20407;-50
2021/01/01 02:40:32;;;;;;;85.67;38.90;;;;;;;;;;5031098;28;20652;-51
2021/01/01 02:42:58;;;;;;;87.53;39.57;;;;;;;;;;5030483;28;20502;-52
2021/01/01 02:45:24;;;;;;;83.17;40.20;;;;;;;;;;5031146;28;20423;-52
2021/01/01 02:47:50;;;;;;;85.40;39.80;;;;;;;;;;5030880;28;20840;-52
2021/01/01 02:50:17;;;;;;;82.33;38.40;;;;;;;;;;5031029;28;20172;-53
2021/01/01 02:52:43;;;;;;;76.18;38.47;;;;;;;;;;5030716;28;20428;-50
2021/01/01 02:55:10;;;;;;;74.75;36.42;;;;;;;;;;5030963;28;20590;-50
2021/01/01 02:57:36;;;;;;;74.65;36.28;;;;;;;;;;5031068;28;20231;-50
2021/01/01 03:00:03;;;;;;;77.57;37.60;;;;;;;;;;5030883;28;20194;-50
2021/01/01 03:02:29;;;;;;;77.95;38.40;;;;;;;;;;5030624;28;20423;-50
2021/01/01 03:04:55;;;;;;;77.67;36.80;;;;;;;;;;5030834;28;20165;-50
2021/01/01 03:07:21;;;;;;;76.50;37.30;;;;;;;;;;5031107;28;20987;-50
2021/01/01 03:09:47;;;;;;;76.30;36.77;;;;;;;;;;5031021;28;20780;-52
2021/01/01 03:12:13;;;;;;;88.00;40.17;;;;;;;;;;5030406;28;20516;-53
2021/01/01 03:14:39;;;;;;;76.13;39.27;;;;;;;;;;5030845;28;20472;-55
2021/01/01 03:17:05;;;;;;;93.77;40.73;;;;;;;;;;5030699;28;20436;-52
2021/01/01 03:19:31;;;;;;;80.23;38.43;;;;;;;;;;5030973;28;20508;-50
2021/01/01 03:21:57;;;;;;;86.97;40.17;;;;;;;;;;5030591;28;20392;-49
2021/01/01 03:24:22;;;;;;;81.87;38.90;;;;;;;;;;5030800;28;20415;-50
2021/01/01 03:26:48;;;;;;;75.60;37.10;;;;;;;;;;5030607;28;20910;-50
2021/01/01 03:29:16;;;;;;;84.83;38.17;;;;;;;;;;5030714;28;20414;-50
2021/01/01 03:31:42;;;;;;;78.38;38.83;;;;;;;;;;5030223;28;20438;-53
2021/01/01 03:34:08;;;;;;;88.00;41.10;;;;;;;;;;5030537;28;20236;-54
2021/01/01 03:36:34;;;;;;;94.73;42.07;;;;;;;;;;5030494;28;20507;-50
2021/01/01 03:39:00;;;;;;;78.28;39.92;;;;;;;;;;5030440;28;20454;-53
2021/01/01 03:41:26;;;;;;;88.20;39.67;;;;;;;;;;5030219;28;20203;-54
2021/01/01 03:43:52;;;;;;;79.37;37.80;;;;;;;;;;5030376;28;21073;-52
2021/01/01 03:46:18;;;;;;;82.17;39.73;;;;;;;;;;5029898;28;20482;-52
2021/01/01 03:48:44;;;;;;;86.40;38.33;;;;;;;;;;5030300;28;20399;-53
2021/01/01 03:51:10;;;;;;;78.63;37.00;;;;;;;;;;5030291;28;20176;-49
2021/01/01 03:53:36;;;;;;;86.20;38.55;;;;;;;;;;5031450;28;20482;-50
2021/01/01 03:56:02;;;;;;;82.50;38.30;;;;;;;;;;5034338;28;20180;-50
2021/01/01 03:58:28;;;;;;;79.03;39.47;;;;;;;;;;5034057;28;20291;-49
2021/01/01 04:00:54;;;;;;;78.15;39.65;;;;;;;;;;5034247;28;20394;-50
2021/01/01 04:03:20;;;;;;;75.82;34.85;;;;;;;;;;5033714;28;20189;-50
2021/01/01 04:05:46;;;;;;;77.80;37.35;;;;;;;;;;5034163;28;20288;-50
2021/01/01 04:08:12;;;;;;;85.30;37.40;;;;;;;;;;5033960;28;20343;-50
2021/01/01 04:10:37;;;;;;;64.87;34.77;;;;;;;;;;5034026;28;20395;-51
2021/01/01 04:13:03;;;;;;;74.80;34.70;;;;;;;;;;5033513;28;20424;-53
2021/01/01 04:15:29;;;;;;;77.83;36.17;;;;;;;;;;5033933;28;20447;-53
2021/01/01 04:17:55;;;;;;;74.70;36.43;;;;;;;;;;5033487;28;20433;-53
2021/01/01 04:20:21;;;;;;;83.70;38.93;;;;;;;;;;5033712;28;20460;-50
2021/01/01 04:22:47;;;;;;;82.25;39.38;;;;;;;;;;5033543;28;20914;-50
2021/01/01 04:25:13;;;;;;;83.67;39.37;;;;;;;;;;5033644;28;20233;-50
2021/01/01 04:27:39;;;;;;;77.15;37.58;;;;;;;;;;5033658;28;20457;-50
2021/01/01 04:30:05;;;;;;;75.90;35.33;;;;;;;;;;5033578;28;20226;-50
2021/01/01 04:32:32;;;;;;;85.57;39.40;;;;;;;;;;5033369;28;20428;-50
2021/01/01 04:34:57;;;;;;;77.30;36.50;;;;;;;;;;5033670;28;20183;-50
2021/01/01 04:37:23;;;;;;;81.63;37.20;;;;;;;;;;5033583;28;20168;-50
2021/01/01 04:39:49;;;;;;;80.17;39.47;;;;;;;;;;5033275;28;20448;-50
2021/01/01 04:42:16;;;;;;;75.67;37.17;;;;;;;;;;5033054;28;20882;-50
2021/01/01 04:44:42;;;;;;;89.22;39.72;;;;;;;;;;5033301;28;20391;-50
2021/01/01 04:47:10;;;;;;;76.00;38.80;;;;;;;;;;5032833;28;20216;-50
2021/01/01 04:49:36;;;;;;;77.03;38.47;;;;;;;;;;5033304;28;20192;-50
2021/01/01 04:52:03;;;;;;;70.82;36.55;;;;;;;;;;5032985;28;20577;-50
2021/01/01 04:54:34;;;;;;;85.00;38.65;;;;;;;;;;5033159;28;20193;-53
2021/01/01 04:57:00;;;;;;;74.95;38.35;;;;;;;;;;5033026;28;20259;-52
2021/01/01 04:59:26;;;;;;;85.22;39.75;;;;;;;;;;5033092;28;20682;-50
2021/01/01 05:01:52;;;;;;;80.82;40.03;;;;;;;;;;5032767;28;20174;-50
2021/01/01 05:04:18;;;;;;;82.20;39.83;;;;;;;;;;5032706;28;20214;-50
2021/01/01 05:06:44;;;;;;;83.97;40.60;;;;;;;;;;5032223;28;20490;-50
2021/01/01 05:09:13;;;;;;;94.63;44.20;;;;;;;;;;5032971;28;20414;-50
2021/01/01 05:11:40;;;;;;;92.15;42.58;;;;;;;;;;5032586;28;20411;-50
2021/01/01 05:14:07;;;;;;;84.40;40.78;;;;;;;;;;5032847;28;20689;-55
2021/01/01 05:16:33;;;;;;;82.03;41.80;;;;;;;;;;5032583;28;20184;-50
2021/01/01 05:18:59;;;;;;;84.32;40.85;;;;;;;;;;5032797;28;20721;-49
2021/01/01 05:21:26;;;;;;;89.97;42.43;;;;;;;;;;5032488;28;20254;-50
2021/01/01 05:23:54;;;;;;;91.85;39.90;;;;;;;;;;5032556;28;20466;-55
2021/01/01 05:26:20;;;;;;;86.38;39.00;;;;;;;;;;5032771;28;20262;-52
2021/01/01 05:28:49;;;;;;;92.53;43.70;;;;;;;;;;5032717;28;20300;-52
2021/01/01 05:31:29;;;;;;;92.60;40.28;;;;;;;;;;5032427;28;20430;-50
2021/01/01 05:34:08;;;;;;;95.22;41.65;;;;;;;;;;5032521;28;20653;-50
2021/01/01 05:36:38;;;;;;;92.50;40.60;;;;;;;;;;5032678;28;20182;-53
2021/01/01 05:39:06;;;;;;;89.18;39.50;;;;;;;;;;5032472;28;20672;-53
2021/01/01 05:41:40;;;;;;;85.88;39.92;;;;;;;;;;5032246;28;20180;-50
2021/01/01 05:44:24;;;;;;;82.32;39.28;;;;;;;;;;5032210;28;20193;-50
2021/01/01 05:46:56;;;;;;;92.72;41.35;;;;;;;;;;5031624;28;20187;-49
2021/01/01 05:49:23;;;;;;;88.45;41.83;;;;;;;;;;5032111;28;20168;-50
2021/01/01 05:52:18;;;;;;;81.13;39.50;;;;;;;;;;5031945;28;20257;-50
2021/01/01 05:54:45;;;;;;;87.90;38.50;;;;;;;;;;5032740;28;20214;-50
2021/01/01 05:57:11;;;;;;;74.22;37.80;;;;;;;;;;5051988;28;20178;-49
2021/01/01 05:59:41;;;;;;;82.90;40.58;;;;;;;;;;5051715;28;20239;-50
2021/01/01 06:02:08;;;;;;;89.53;41.00;;;;;;;;;;5051647;28;20235;-52
2021/01/01 06:04:34;;;;;;;87.38;40.42;;;;;;;;;;5051708;28;20171;-50
2021/01/01 06:07:01;;;;;;;88.70;41.15;;;;;;;;;;5051859;28;20164;-50
2021/01/01 06:09:29;;;;;;;94.45;41.83;;;;;;;;;;5051650;28;20171;-52
2021/01/01 06:11:58;;;;;;;87.60;40.08;;;;;;;;;;5051461;28;20268;-50
2021/01/01 06:14:30;;;;;;;83.95;38.08;;;;;;;;;;5051520;28;20577;-53
2021/01/01 06:17:02;;;;;;;81.22;40.70;;;;;;;;;;5047393;28;20176;-53
2021/01/01 06:19:38;;;;;;;78.57;36.13;;;;;;;;;;5031534;28;20569;-50
2021/01/01 06:22:05;;;;;;;76.78;38.05;;;;;;;;;;5031338;28;20183;-50
2021/01/01 06:24:39;;;;;;;81.00;38.28;;;;;;;;;;5031299;28;20181;-50
2021/01/01 06:27:05;;;;;;;85.75;38.75;;;;;;;;;;5031511;28;20164;-50
2021/01/01 06:29:31;;;;;;;83.10;38.08;;;;;;;;;;5031300;28;20294;-51
2021/01/01 06:31:57;;;;;;;84.22;38.00;;;;;;;;;;5031284;28;20208;-52
2021/01/01 06:34:24;;;;;;;94.68;41.30;;;;;;;;;;5031344;28;20183;-49
2021/01/01 06:36:50;;;;;;;90.90;39.75;;;;;;;;;;5031111;28;20190;-52
2021/01/01 06:39:35;;;;;;;89.25;38.85;;;;;;;;;;5031458;28;20205;-51
2021/01/01 06:42:01;;;;;;;83.15;38.10;;;;;;;;;;5030953;28;20178;-50
2021/01/01 06:44:42;;;;;;;87.30;40.73;;;;;;;;;;5031213;28;20744;-50
2021/01/01 06:47:28;;;;;;;93.05;40.88;;;;;;;;;;5041366;28;20794;-50
2021/01/01 06:49:54;;;;;;;84.28;37.92;;;;;;;;;;5050897;28;20650;-52
2021/01/01 06:52:20;;;;;;;89.10;39.70;;;;;;;;;;5050470;28;20171;-53
2021/01/01 06:54:53;;;;;;;83.60;38.50;;;;;;;;;;5050961;28;20485;-50
2021/01/01 06:57:20;;;;;;;82.25;39.05;;;;;;;;;;5050826;28;20405;-50
2021/01/01 06:59:46;;;;;;;91.20;41.58;;;;;;;;;;5050786;28;20652;-53
2021/01/01 07:02:41;;;;;;;93.47;40.27;;;;;;;;;;5050586;28;20274;-52
2021/01/01 07:05:07;;;;;;;81.57;36.22;;;;;;;;;;5046050;28;20490;-50
2021/01/01 07:07:39;;;;;;;90.55;39.33;;;;;;;;;;5050601;28;20165;-50
2021/01/01 07:10:06;;;;;;;70.60;35.25;;;;;;;;;;5050704;28;20205;-50
2021/01/01 07:12:32;;;;;;;77.93;37.95;;;;;;;;;;5050320;28;20203;-52
2021/01/01 07:14:58;;;;;;;81.73;38.70;;;;;;;;;;5050747;28;20167;-53
2021/01/01 07:17:24;;;;;;;86.15;39.22;;;;;;;;;;5039048;28;20958;-53
2021/01/01 07:19:50;;;;;;;93.23;38.97;;;;;;;;;;5030408;28;20197;-50
2021/01/01 07:22:16;;;;;;;76.53;36.17;;;;;;;;;;5029583;28;20399;-50
2021/01/01 07:24:47;;;;;;;86.43;38.97;;;;;;;;;;5030320;28;20647;-50
2021/01/01 07:27:13;;;;;;;87.18;36.75;;;;;;;;;;5030244;28;20545;-49
2021/01/01 07:29:40;;;;;;;86.13;38.67;;;;;;;;;;5033782;28;20168;-49
2021/01/01 07:32:07;;;;;;;76.28;36.95;;;;;;;;;;5034102;28;20638;-50
2021/01/01 07:34:33;;;;;;;105.32;38.13;;;;;;;;;;5034320;28;20189;-50
2021/01/01 07:37:03;;;;;;;84.53;36.70;;;;;;;;;;5034140;28;20175;-50
2021/01/01 07:39:29;;;;;;;81.88;35.72;;;;;;;;;;5033973;28;20447;-55
2021/01/01 07:42:05;;;;;;;77.07;35.88;;;;;;;;;;5034004;28;20171;-53
2021/01/01 07:44:31;;;;;;;68.97;34.72;;;;;;;;;;5033989;28;20190;-50
2021/01/01 07:46:57;;;;;;;76.87;34.87;;;;;;;;;;5045488;28;20280;-49
2021/01/01 07:49:30;;;;;;;78.93;35.33;;;;;;;;;;5053391;28;21148;-49
2021/01/01 07:52:05;;;;;;;71.63;35.30;;;;;;;;;;5054026;28;20599;-50
2021/01/01 07:54:31;;;;;;;75.55;36.10;;;;;;;;;;5053992;28;20222;-50
2021/01/01 07:57:06;;;;;;;73.50;34.97;;;;;;;;;;5054395;28;20199;-50
2021/01/01 07:59:35;;;;;;;67.18;35.17;;;;;;;;;;5054084;28;20464;-53
2021/01/01 08:02:01;;;;;;;72.20;37.63;;;;;;;;;;5054001;28;20171;-50
2021/01/01 08:04:31;;;;;;;80.33;35.13;;;;;;;;;;5053825;28;20282;-50
2021/01/01 08:06:57;;;;;;;61.83;33.20;;;;;;;;;;5054085;28;20430;-52
2021/01/01 08:09:23;;;;;;;70.05;33.08;;;;;;;;;;5053096;28;20159;-52
2021/01/01 08:11:49;;;;;;;74.70;32.20;;;;;;;;;;5053337;28;20275;-51
2021/01/01 08:14:21;;;;;;;65.00;33.58;;;;;;;;;;5053167;28;20274;-51
2021/01/01 08:16:47;;;;;;;74.57;34.08;;;;;;;;;;5044525;28;20191;-53
2021/01/01 08:19:22;;;;;;;64.10;31.50;;;;;;;;;;5033178;28;20665;-53
2021/01/01 08:21:51;;;;;;;67.65;32.92;;;;;;;;;;5033042;28;20254;-50
2021/01/01 08:24:18;;;;;;;59.70;31.65;;;;;;;;;;5033100;28;20270;-51
2021/01/01 08:26:44;;;;;;;60.70;30.35;;;;;;;;;;5033179;28;20169;-52
2021/01/01 08:29:11;;;;;;;67.13;32.20;;;;;;;;;;5032898;28;20175;-50
2021/01/01 08:31:38;;;;;;;63.05;32.85;;;;;;;;;;5032704;28;20180;-53
2021/01/01 08:34:04;;;;;;;71.60;32.65;;;;;;;;;;5033041;28;20206;-52
2021/01/01 08:36:32;;;;;;;61.72;32.67;;;;;;;;;;5032936;28;20168;-51
2021/01/01 08:39:05;;;;;;;69.75;34.10;;;;;;;;;;5032685;28;20197;-53
2021/01/01 08:41:33;;;;;;;78.35;33.67;;;;;;;;;;5033031;28;20168;-53
2021/01/01 08:43:59;;;;;;;68.55;32.15;;;;;;;;;;5033807;28;20260;-50
2021/01/01 08:46:27;;;;;;;74.30;34.83;;;;;;;;;;5032665;28;20334;-50
2021/01/01 08:48:53;;;;;;;69.43;33.03;;;;;;;;;;5033310;28;20404;-52
2021/01/01 08:51:31;;;;;;;69.60;30.40;;;;;;;;;;5032894;28;20181;-53
2021/01/01 08:53:58;;;;;;;66.10;33.47;;;;;;;;;;5033240;28;20981;-50
2021/01/01 08:56:24;;;;;;;68.90;31.98;;;;;;;;;;5033188;28;20175;-50
2021/01/01 08:59:07;;;;;;;56.50;29.02;;;;;;;;;;5032997;28;20705;-50
2021/01/01 09:01:33;;;;;;;59.03;29.55;;;;;;;;;;5032945;28;20174;-53
2021/01/01 09:04:02;;;;;;;60.40;31.00;;;;;;;;;;5032898;28;20186;-53
2021/01/01 09:06:28;;;;;;;53.53;27.40;;;;;;;;;;5033040;28;20403;-50
2021/01/01 09:09:09;;;;;;;61.58;31.15;;;;;;;;;;5032793;28;20169;-50
2021/01/01 09:11:35;;;;;;;59.47;28.77;;;;;;;;;;5032807;28;20164;-52
2021/01/01 09:14:02;;;;;;;64.37;32.70;;;;;;;;;;5032436;28;20206;-50
2021/01/01 09:16:28;;;;;;;63.85;30.70;;;;;;;;;;5032809;28;20403;-50
2021/01/01 09:18:54;;;;;;;69.82;33.40;;;;;;;;;;5032721;28;20275;-50
2021/01/01 09:21:20;;;;;;;68.23;34.20;;;;;;;;;;5032560;28;20248;-50
2021/01/01 09:23:54;;;;;;;60.30;30.77;;;;;;;;;;5032837;28;20424;-50
2021/01/01 09:26:24;;;;;;;70.47;30.55;;;;;;;;;;5033033;28;20179;-50
2021/01/01 09:28:59;;;;;;;65.45;32.47;;;;;;;;;;5032712;28;20173;-50
2021/01/01 09:31:25;;;;;;;72.78;32.45;;;;;;;;;;5032671;28;20218;-50
2021/01/01 09:34:00;;;;;;;75.53;32.88;;;;;;;;;;5032543;28;20632;-50
2021/01/01 09:36:27;;;;;;;71.55;33.55;;;;;;;;;;5032878;28;20178;-50
2021/01/01 09:38:53;;;;;;;84.00;34.38;;;;;;;;;;5032565;28;20242;-50
2021/01/01 09:41:19;;;;;;;69.50;33.83;;;;;;;;;;5032216;28;20190;-50
2021/01/01 09:43:46;;;;;;;89.53;37.50;;;;;;;;;;5032256;28;20996;-54
2021/01/01 09:46:14;;;;;;;74.75;34.55;;;;;;;;;;5032643;28;20443;-53
2021/01/01 09:48:40;;;;;;;80.38;34.78;;;;;;;;;;5044914;28;20208;-50
2021/01/01 09:51:06;;;;;;;77.07;35.70;;;;;;;;;;5051303;28;20647;-50
2021/01/01 09:53:32;;;;;;;72.15;32.92;;;;;;;;;;5052351;28;20417;-50
2021/01/01 09:55:58;;;;;;;77.65;34.92;;;;;;;;;;5051938;28;20192;-50
2021/01/01 09:58:24;;;;;;;82.70;35.50;;;;;;;;;;5051963;28;20241;-50
2021/01/01 10:00:50;;;;;;;77.22;35.65;;;;;;;;;;5051859;28;20769;-50
2021/01/01 10:03:16;;;;;;;77.93;34.50;;;;;;;;;;5051471;28;20664;-50
2021/01/01 10:05:42;;;;;;;77.47;35.40;;;;;;;;;;5051754;28;20177;-53
2021/01/01 10:08:08;;;;;;;76.28;35.25;;;;;;;;;;5051804;28;20418;-53
2021/01/01 10:10:34;;;;;;;74.03;35.67;;;;;;;;;;5051648;28;20644;-53
2021/01/01 10:13:00;;;;;;;80.87;34.20;;;;;;;;;;5051398;28;20906;-53
2021/01/01 10:15:26;;;;;;;70.97;36.00;;;;;;;;;;5043434;28;20498;-53
2021/01/01 10:17:52;;;;;;;81.30;36.40;;;;;;;;;;5031654;28;20507;-52
2021/01/01 10:20:18;;;;;;;75.30;34.80;;;;;;;;;;5031594;28;20457;-53
2021/01/01 10:22:44;;;;;;;75.60;36.23;;;;;;;;;;5031159;28;20183;-50
2021/01/01 10:25:11;;;;;;;76.07;33.10;;;;;;;;;;5031598;28;20554;-50
2021/01/01 10:27:37;;;;;;;79.97;36.67;;;;;;;;;;5031325;28;20390;-51
2021/01/01 10:30:06;;;;;;;80.63;36.53;;;;;;;;;;5031455;28;20174;-53
2021/01/01 10:32:32;;;;;;;82.78;35.35;;;;;;;;;;5031008;28;20436;-51
2021/01/01 10:34:58;;;;;;;77.80;32.88;;;;;;;;;;5031333;28;20182;-50
2021/01/01 10:37:24;;;;;;;62.47;32.63;;;;;;;;;;5031345;28;20171;-50
2021/01/01 10:39:50;;;;;;;77.63;33.72;;;;;;;;;;5031185;28;20486;-51
2021/01/01 10:42:16;;;;;;;69.83;32.73;;;;;;;;;;5030845;28;20749;-52
2021/01/01 10:44:42;;;;;;;76.13;32.57;;;;;;;;;;5031202;28;20767;-54
2021/01/01 10:47:08;;;;;;;77.67;32.53;;;;;;;;;;5030393;28;20456;-50
2021/01/01 10:49:34;;;;;;;70.93;33.73;;;;;;;;;;5042546;28;20495;-50
2021/01/01 10:52:01;;;;;;;70.53;32.35;;;;;;;;;;5050546;28;20912;-54
2021/01/01 10:54:30;;;;;;;71.53;34.38;;;;;;;;;;5050839;28;20191;-50
2021/01/01 10:56:56;;;;;;;69.60;33.00;;;;;;;;;;5051024;28;20254;-50
2021/01/01 10:59:23;;;;;;;71.85;32.65;;;;;;;;;;5050614;28;20236;-53
2021/01/01 11:01:53;;;;;;;63.83;32.75;;;;;;;;;;5050582;28;20172;-50
2021/01/01 11:04:19;;;;;;;78.03;32.92;;;;;;;;;;5049903;28;20225;-50
2021/01/01 11:06:45;;;;;;;72.37;32.10;;;;;;;;;;5050867;28;20199;-50
2021/01/01 11:09:11;;;;;;;72.85;36.40;;;;;;;;;;5050719;28;20471;-50
2021/01/01 11:11:37;;;;;;;73.93;33.83;;;;;;;;;;5050555;28;20179;-50
2021/01/01 12:22:53;;;;;;;59.13;30.77;;;;;;;;;;5033458;28;20441;-53
2021/01/01 12:25:20;;;;;;;70.23;32.97;;;;;;;;;;5033654;28;20756;-53
2021/01/01 12:27:47;;;;;;;64.47;33.30;;;;;;;;;;5032800;28;20789;-52
2021/01/01 12:30:13;;;;;;;64.23;33.83;;;;;;;;;;5031607;28;20438;-53
2021/01/01 12:32:40;;;;;;;60.50;30.27;;;;;;;;;;5032795;28;21002;-53
2021/01/01 12:35:08;;;;;;;57.67;29.17;;;;;;;;;;5032988;28;20490;-53
2021/01/01 12:37:34;;;;;;;57.53;30.53;;;;;;;;;;5033724;28;20405;-53
2021/01/01 12:40:00;;;;;;;56.57;29.70;;;;;;;;;;5033291;28;20462;-53
2021/01/01 12:42:26;;;;;;;60.60;30.83;;;;;;;;;;5033116;28;20406;-52
2021/01/01 12:44:53;;;;;;;53.13;30.50;;;;;;;;;;5033259;28;20429;-53
2021/01/01 12:47:19;;;;;;;53.00;29.97;;;;;;;;;;5044246;28;20447;-52
2021/01/01 12:49:45;;;;;;;50.97;27.03;;;;;;;;;;5053149;28;20877;-53
2021/01/01 12:52:13;;;;;;;45.00;25.07;;;;;;;;;;5052819;28;20495;-53
2021/01/01 12:54:39;;;;;;;46.60;24.70;;;;;;;;;;5051852;28;20505;-51
2021/01/01 12:57:05;;;;;;;44.93;23.50;;;;;;;;;;5053020;28;20857;-53
2021/01/01 12:59:31;;;;;;;44.77;26.17;;;;;;;;;;5052866;28;20456;-52
2021/01/01 13:01:57;;;;;;;40.40;21.53;;;;;;;;;;5052626;28;20436;-53
2021/01/01 13:04:23;;;;;;;47.30;24.70;;;;;;;;;;5052833;28;20459;-52
2021/01/01 13:06:49;;;;;;;47.40;24.70;;;;;;;;;;5052840;28;20405;-52
2021/01/01 13:09:15;;;;;;;43.00;24.37;;;;;;;;;;5053001;28;20413;-52
2021/01/01 13:11:42;;;;;;;48.97;24.80;;;;;;;;;;5052839;28;20494;-52
2021/01/01 13:14:08;;;;;;;51.87;25.67;;;;;;;;;;5052580;28;20424;-53
2021/01/01 13:16:34;;;;;;;44.93;25.53;;;;;;;;;;5049606;28;20463;-52
2021/01/01 13:19:00;;;;;;;51.17;26.23;;;;;;;;;;5032430;28;20961;-52
2021/01/01 13:21:30;;;;;;;47.20;25.57;;;;;;;;;;5032534;28;20767;-53
2021/01/01 13:23:56;;;;;;;47.47;23.57;;;;;;;;;;5032747;28;20427;-52
2021/01/01 13:26:24;;;;;;;41.07;23.33;;;;;;;;;;5031848;28;20897;-51
2021/01/01 13:28:50;;;;;;;49.17;24.30;;;;;;;;;;5032584;28;20419;-52
2021/01/01 13:31:16;;;;;;;50.90;25.40;;;;;;;;;;5032333;28;20405;-52
2021/01/01 13:33:42;;;;;;;43.87;24.80;;;;;;;;;;5032300;28;20913;-53
2021/01/01 13:36:12;;;;;;;49.87;24.50;;;;;;;;;;5032479;28;20500;-52
2021/01/01 13:38:38;;;;;;;51.63;24.20;;;;;;;;;;5032385;28;20424;-53
2021/01/01 13:41:04;;;;;;;55.80;27.67;;;;;;;;;;5032079;28;20437;-52
2021/01/01 13:43:30;;;;;;;49.80;26.37;;;;;;;;;;5032284;28;20457;-52
2021/01/01 13:45:56;;;;;;;50.67;25.97;;;;;;;;;;5032033;28;20520;-52
2021/01/01 13:48:22;;;;;;;52.00;24.97;;;;;;;;;;5031810;28;20440;-53
2021/01/01 13:50:48;;;;;;;42.73;23.30;;;;;;;;;;5048118;28;20437;-52
2021/01/01 13:53:14;;;;;;;43.37;23.00;;;;;;;;;;5051656;28;20470;-52
2021/01/01 13:55:40;;;;;;;47.50;24.80;;;;;;;;;;5052021;28;20405;-52
2021/01/01 13:58:06;;;;;;;39.93;24.23;;;;;;;;;;5051141;28;20417;-52
2021/01/01 14:00:32;;;;;;;42.90;24.80;;;;;;;;;;5051643;28;20514;-52
2021/01/01 14:02:58;;;;;;;42.97;25.13;;;;;;;;;;5051722;28;20457;-53
2021/01/01 14:05:24;;;;;;;38.03;21.73;;;;;;;;;;5052114;28;20526;-53
2021/01/01 14:07:50;;;;;;;36.63;22.10;;;;;;;;;;5051723;28;20999;-53
2021/01/01 14:10:16;;;;;;;43.00;21.70;;;;;;;;;;5051904;28;20412;-54
2021/01/01 14:12:42;;;;;;;36.00;21.77;;;;;;;;;;5051331;28;20421;-53
2021/01/01 14:15:08;;;;;;;37.03;20.73;;;;;;;;;;5051680;28;20401;-53
2021/01/01 14:17:34;;;;;;;35.20;20.07;;;;;;;;;;5048561;28;20405;-53
2021/01/01 14:20:00;;;;;;;39.37;21.20;;;;;;;;;;5031741;28;20473;-52
2021/01/01 14:22:26;;;;;;;41.97;21.80;;;;;;;;;;5031230;28;20398;-53
2021/01/01 14:24:52;;;;;;;39.07;23.27;;;;;;;;;;5031622;28;20398;-52
2021/01/01 14:27:18;;;;;;;41.10;23.03;;;;;;;;;;5031420;28;20409;-52
2021/01/01 14:29:44;;;;;;;39.97;22.17;;;;;;;;;;5031182;28;20405;-52
2021/01/01 14:32:09;;;;;;;35.80;21.70;;;;;;;;;;5030941;28;20405;-53
2021/01/01 14:34:36;;;;;;;39.00;20.63;;;;;;;;;;5031289;28;21003;-53
2021/01/01 14:37:03;;;;;;;38.13;22.17;;;;;;;;;;5031382;28;20407;-52
2021/01/01 14:39:29;;;;;;;42.33;21.47;;;;;;;;;;5031214;28;20451;-54
2021/01/01 14:41:58;;;;;;;39.73;21.70;;;;;;;;;;5031224;28;20412;-50
2021/01/01 14:44:24;;;;;;;39.67;21.20;;;;;;;;;;5031017;28;20420;-51
2021/01/01 14:46:50;;;;;;;40.70;21.17;;;;;;;;;;5032578;28;20440;-52
2021/01/01 14:49:18;;;;;;;40.73;22.13;;;;;;;;;;5050944;28;20503;-50
2021/01/01 14:51:43;;;;;;;39.20;21.00;;;;;;;;;;5050816;28;21041;-52
2021/01/01 14:54:09;;;;;;;38.63;21.60;;;;;;;;;;5050792;28;20507;-48
2021/01/01 14:56:38;;;;;;;38.27;22.20;;;;;;;;;;5050943;28;20395;-49
2021/01/01 14:59:05;;;;;;;39.13;20.55;;;;;;;;;;5050735;28;20456;-49
2021/01/01 15:01:34;;;;;;;32.58;19.58;;;;;;;;;;5050602;28;20251;-49
2021/01/01 15:04:00;;;;;;;35.72;20.20;;;;;;;;;;5050401;28;20269;-51
2021/01/01 15:06:26;;;;;;;35.03;18.95;;;;;;;;;;5049505;28;20191;-50
2021/01/01 15:08:52;;;;;;;34.88;18.80;;;;;;;;;;5050361;28;20171;-49
2021/01/01 15:11:18;;;;;;;39.13;20.07;;;;;;;;;;5050236;28;20230;-51
2021/01/01 15:13:44;;;;;;;39.10;20.48;;;;;;;;;;5050795;28;20877;-50
2021/01/01 15:16:10;;;;;;;38.77;20.13;;;;;;;;;;5050742;28;20255;-50
2021/01/01 15:18:36;;;;;;;42.25;20.58;;;;;;;;;;5047988;28;20916;-50
2021/01/01 15:21:03;;;;;;;36.70;19.53;;;;;;;;;;5050489;28;20170;-51
2021/01/01 15:23:28;;;;;;;36.67;19.10;;;;;;;;;;5050352;28;20470;-50
2021/01/01 15:25:54;;;;;;;38.23;20.70;;;;;;;;;;5050333;28;20241;-51